createdAt,value
2022-08-03T04:02:30.714Z,21.64
2022-08-03T04:05:16.006Z,21.59
2022-08-03T04:08:12.888Z,21.59
2022-08-03T04:11:01.436Z,21.60
2022-08-03T04:13:34.227Z,21.56
2022-08-03T04:16:02.867Z,21.56
2022-08-03T04:18:34.886Z,21.59
2022-08-03T04:21:05.250Z,21.62
2022-08-03T04:23:36.665Z,21.60
2022-08-03T04:26:09.544Z,21.60
2022-08-03T04:28:40.475Z,21.61
2022-08-03T04:31:08.894Z,21.59
2022-08-03T04:33:40.243Z,21.62
2022-08-03T04:36:09.762Z,21.61
2022-08-03T04:38:44.643Z,21.64
2022-08-03T04:41:12.958Z,21.61
2022-08-03T04:43:41.722Z,21.63
2022-08-03T04:46:10.818Z,21.65
2022-08-03T04:48:43.534Z,21.67
2022-08-03T04:51:13.178Z,21.67
2022-08-03T04:53:41.062Z,21.72
2022-08-03T04:56:09.476Z,21.78
2022-08-03T04:58:37.336Z,21.81
2022-08-03T05:01:05.022Z,21.84
2022-08-03T05:03:32.671Z,21.85
2022-08-03T05:06:10.063Z,21.85
2022-08-03T05:08:46.149Z,21.88
2022-08-03T05:11:14.886Z,21.92
2022-08-03T05:13:42.607Z,21.95
2022-08-03T05:16:10.202Z,21.98
2022-08-03T05:18:37.857Z,22.00
2022-08-03T05:21:06.780Z,22.04
2022-08-03T05:23:34.495Z,22.02
2022-08-03T05:26:02.105Z,22.05
2022-08-03T05:28:29.787Z,22.09
2022-08-03T05:30:58.209Z,22.12
2022-08-03T05:33:25.822Z,22.14
2022-08-03T05:36:02.727Z,22.16
2022-08-03T05:38:35.023Z,22.19
2022-08-03T05:41:21.523Z,22.21
2022-08-03T05:43:52.214Z,22.24
2022-08-03T05:46:20.782Z,22.29
2022-08-03T05:48:48.726Z,22.34
2022-08-03T05:51:16.347Z,22.39
2022-08-03T05:53:45.485Z,22.41
2022-08-03T05:56:16.030Z,22.42
2022-08-03T05:58:45.847Z,22.50
2022-08-03T06:01:13.546Z,22.54
2022-08-03T06:03:41.392Z,22.60
2022-08-03T06:06:09.266Z,22.67
2022-08-03T06:08:36.928Z,22.66
2022-08-03T06:11:05.922Z,22.63
2022-08-03T06:13:33.900Z,22.60
2022-08-03T06:16:02.424Z,22.65
2022-08-03T06:18:30.043Z,22.77
2022-08-03T06:20:57.776Z,22.87
2022-08-03T06:23:53.420Z,22.96
2022-08-03T06:26:25.860Z,22.98
2022-08-03T06:28:54.846Z,23.09
2022-08-03T06:31:32.795Z,23.20
2022-08-03T06:34:32.872Z,23.34
2022-08-03T06:36:51.164Z,23.53
2022-08-03T06:39:20.600Z,23.60
2022-08-03T06:41:53.428Z,23.63
2022-08-03T06:44:21.718Z,23.67
2022-08-03T06:46:49.305Z,23.78
2022-08-03T06:49:16.967Z,23.90
2022-08-03T06:52:05.527Z,23.91
2022-08-03T06:54:33.296Z,23.84
2022-08-03T06:57:02.357Z,23.86
2022-08-03T07:00:10.410Z,23.90
2022-08-03T07:02:19.456Z,23.91
2022-08-03T07:04:47.737Z,24.03
2022-08-03T07:07:15.319Z,24.04
2022-08-03T07:09:42.864Z,24.10
2022-08-03T07:12:27.761Z,24.18
2022-08-03T07:14:59.819Z,24.24
2022-08-03T07:17:29.032Z,24.36
2022-08-03T07:19:56.637Z,24.38
2022-08-03T07:22:24.262Z,24.40
2022-08-03T07:24:51.860Z,24.41
2022-08-03T07:27:19.529Z,24.42
2022-08-03T07:29:48.427Z,24.44
2022-08-03T07:32:16.984Z,24.50
2022-08-03T07:34:44.791Z,24.58
2022-08-03T07:37:12.553Z,24.67
2022-08-03T07:39:40.145Z,24.76
2022-08-03T07:42:08.061Z,24.90
2022-08-03T07:44:35.664Z,25.01
2022-08-03T07:47:04.593Z,25.06
2022-08-03T07:49:34.017Z,25.06
2022-08-03T07:52:19.291Z,25.09
2022-08-03T07:54:46.993Z,25.18
2022-08-03T07:57:14.556Z,25.28
2022-08-03T08:00:01.602Z,25.35
2022-08-03T08:02:31.509Z,25.42
2022-08-03T08:05:03.501Z,25.50
2022-08-03T08:07:33.102Z,25.54
2022-08-03T08:10:00.691Z,25.58
2022-08-03T08:12:28.287Z,25.62
2022-08-03T08:14:55.928Z,25.68
2022-08-03T08:17:23.732Z,25.75
2022-08-03T08:19:53.285Z,25.79
2022-08-03T08:22:30.038Z,25.89
2022-08-03T08:24:58.868Z,25.99
2022-08-03T08:27:26.860Z,26.06
2022-08-03T08:29:58.870Z,26.17
2022-08-03T08:32:30.225Z,26.22
2022-08-03T08:34:59.222Z,26.27
2022-08-03T08:37:26.876Z,26.31
2022-08-03T08:39:54.992Z,26.36
2022-08-03T08:42:22.605Z,26.36
2022-08-03T08:44:50.769Z,26.39
2022-08-03T08:47:20.733Z,26.49
2022-08-03T08:50:08.902Z,26.61
2022-08-03T08:52:42.739Z,26.70
2022-08-03T08:55:14.347Z,26.74
2022-08-03T08:57:48.477Z,26.84
2022-08-03T09:00:17.411Z,26.87
2022-08-03T09:02:46.328Z,26.95
2022-08-03T09:05:15.655Z,27.00
2022-08-03T09:07:46.013Z,27.06
2022-08-03T09:10:19.660Z,27.08
2022-08-03T09:12:48.717Z,27.07
2022-08-03T09:15:21.225Z,27.15
2022-08-03T09:17:51.233Z,27.22
2022-08-03T09:20:20.649Z,27.30
2022-08-03T09:22:57.634Z,27.36
2022-08-03T09:25:33.730Z,27.39
2022-08-03T09:28:10.354Z,27.39
2022-08-03T09:30:39.849Z,27.47
2022-08-03T09:33:09.565Z,27.53
2022-08-03T09:35:53.604Z,27.59
2022-08-03T09:38:26.130Z,27.67
2022-08-03T09:40:59.221Z,27.69
2022-08-03T09:43:28.320Z,27.60
2022-08-03T09:46:03.812Z,27.59
2022-08-03T09:48:33.208Z,27.61
2022-08-03T09:51:13.378Z,27.62
2022-08-03T09:53:59.641Z,27.61
2022-08-03T09:56:42.449Z,27.71
2022-08-03T09:59:10.862Z,27.76
2022-08-03T10:01:41.552Z,27.88
2022-08-03T10:04:17.760Z,27.88
2022-08-03T10:06:46.453Z,27.87
2022-08-03T10:09:16.904Z,27.90
2022-08-03T10:11:46.815Z,27.96
2022-08-03T10:14:18.865Z,27.98
2022-08-03T10:16:48.539Z,28.02
2022-08-03T10:19:16.463Z,28.07
2022-08-03T10:21:56.152Z,28.13
2022-08-03T10:24:29.030Z,28.15
2022-08-03T10:27:03.722Z,28.13
2022-08-03T10:29:35.767Z,28.19
2022-08-03T10:32:08.534Z,28.20
2022-08-03T10:34:44.398Z,28.17
2022-08-03T10:37:16.000Z,28.17
2022-08-03T10:39:54.116Z,28.18
2022-08-03T10:42:27.063Z,28.24
2022-08-03T10:45:04.722Z,28.38
2022-08-03T10:47:34.134Z,28.40
2022-08-03T10:50:02.868Z,28.39
2022-08-03T10:52:38.159Z,28.43
2022-08-03T10:55:49.372Z,28.40
2022-08-03T10:58:30.296Z,28.37
2022-08-03T11:00:58.571Z,28.48
2022-08-03T11:03:26.354Z,28.48
2022-08-03T11:05:55.868Z,28.47
2022-08-03T11:08:34.849Z,28.53
2022-08-03T11:11:29.478Z,28.64
2022-08-03T11:14:04.460Z,28.58
2022-08-03T11:16:35.808Z,28.59
2022-08-03T11:19:05.862Z,28.57
2022-08-03T11:21:59.162Z,28.57
2022-08-03T11:25:00.641Z,28.67
2022-08-03T11:27:38.740Z,28.78
2022-08-03T11:30:09.874Z,28.87
2022-08-03T11:32:56.248Z,28.88
2022-08-03T11:35:25.332Z,28.94
2022-08-03T11:38:07.142Z,29.16
2022-08-03T11:40:37.756Z,29.27
2022-08-03T11:43:08.782Z,29.32
2022-08-03T11:45:37.814Z,29.42
2022-08-03T11:48:16.046Z,29.53
2022-08-03T11:50:45.283Z,29.65
2022-08-03T11:53:17.850Z,29.91
2022-08-03T11:55:48.765Z,29.98
2022-08-03T11:59:09.412Z,29.97
2022-08-03T12:01:10.521Z,30.04
2022-08-03T12:03:38.374Z,30.03
2022-08-03T12:06:10.351Z,30.16
2022-08-03T12:08:38.324Z,30.22
2022-08-03T12:11:08.661Z,30.33
2022-08-03T12:14:33.013Z,30.52
2022-08-03T12:16:30.631Z,30.80
2022-08-03T12:18:59.641Z,31.05
2022-08-03T12:21:27.388Z,31.24
2022-08-03T12:24:00.022Z,31.39
2022-08-03T12:26:31.186Z,31.54
2022-08-03T12:29:00.085Z,31.74
2022-08-03T12:31:27.749Z,31.80
2022-08-03T12:33:59.028Z,31.90
2022-08-03T12:36:28.788Z,31.87
2022-08-03T12:38:58.168Z,32.01
2022-08-03T12:41:31.799Z,32.09
2022-08-03T12:44:00.739Z,31.98
2022-08-03T12:46:34.062Z,31.86
2022-08-03T12:49:07.712Z,31.62
2022-08-03T12:51:37.756Z,31.68
2022-08-03T12:54:06.199Z,31.92
2022-08-03T12:56:33.865Z,32.12
2022-08-03T12:59:25.198Z,32.04
2022-08-03T13:02:00.356Z,32.26
2022-08-03T13:04:30.749Z,32.48
2022-08-03T13:07:03.438Z,32.53
2022-08-03T13:09:33.064Z,32.36
2022-08-03T13:12:08.395Z,32.03
2022-08-03T13:14:37.481Z,31.83
2022-08-03T13:17:06.944Z,31.73
2022-08-03T13:19:34.934Z,31.62
2022-08-03T13:22:04.181Z,31.88
2022-08-03T13:24:33.494Z,31.79
2022-08-03T13:28:01.990Z,31.74
2022-08-03T13:29:52.790Z,31.90
2022-08-03T13:32:20.659Z,32.02
2022-08-03T13:34:48.486Z,32.22
2022-08-03T13:37:16.679Z,32.46
2022-08-03T13:39:58.078Z,32.60
2022-08-03T13:42:28.614Z,32.78
2022-08-03T13:44:57.671Z,32.83
2022-08-03T13:47:25.403Z,32.93
2022-08-03T13:50:00.432Z,33.03
2022-08-03T13:52:31.824Z,33.11
2022-08-03T13:54:59.794Z,33.24
2022-08-03T13:58:06.645Z,33.38
2022-08-03T14:00:27.480Z,33.52
2022-08-03T14:03:03.819Z,33.68
2022-08-03T14:05:32.599Z,33.70
2022-08-03T14:08:04.043Z,33.80
2022-08-03T14:10:32.802Z,33.97
2022-08-03T14:13:02.632Z,34.08
2022-08-03T14:15:31.980Z,34.16
2022-08-03T14:18:05.088Z,33.97
2022-08-03T14:20:36.635Z,34.09
2022-08-03T14:23:05.286Z,34.22
2022-08-03T14:25:43.638Z,34.34
2022-08-03T14:28:18.881Z,34.34
2022-08-03T14:30:48.444Z,34.64
2022-08-03T14:33:16.396Z,34.75
2022-08-03T14:35:44.035Z,34.70
2022-08-03T14:38:11.665Z,34.78
2022-08-03T14:40:39.357Z,34.77
2022-08-03T14:43:06.962Z,34.60
2022-08-03T14:45:34.850Z,34.85
2022-08-03T14:50:10.491Z,34.91
2022-08-03T14:50:55.071Z,34.81
2022-08-03T14:53:22.902Z,34.93
2022-08-03T14:55:51.861Z,35.13
2022-08-03T14:58:21.548Z,35.24
2022-08-03T15:00:50.668Z,35.13
2022-08-03T15:03:22.959Z,35.18
2022-08-03T15:05:51.614Z,35.06
2022-08-03T15:08:19.273Z,34.93
2022-08-03T15:10:46.930Z,34.89
2022-08-03T15:13:17.492Z,34.93
2022-08-03T15:15:45.199Z,34.97
2022-08-03T15:18:12.951Z,34.91
2022-08-03T15:20:46.576Z,34.81
2022-08-03T15:23:16.239Z,34.87
2022-08-03T15:26:28.678Z,34.93
2022-08-03T15:28:32.726Z,35.00
2022-08-03T15:31:00.887Z,34.95
2022-08-03T15:33:29.020Z,34.75
2022-08-03T15:35:59.925Z,34.53
2022-08-03T15:38:30.092Z,34.19
2022-08-03T15:40:58.915Z,33.97
2022-08-03T15:43:26.543Z,33.81
2022-08-03T15:46:26.646Z,33.67
2022-08-03T15:48:42.017Z,33.57
2022-08-03T15:51:12.309Z,33.42
2022-08-03T15:53:39.923Z,33.31
2022-08-03T15:56:13.238Z,33.28
2022-08-03T15:59:09.545Z,33.23
2022-08-03T16:01:31.379Z,33.13
2022-08-03T16:03:59.024Z,33.08
2022-08-03T16:06:35.343Z,33.07
2022-08-03T16:09:24.358Z,33.02
2022-08-03T16:11:53.746Z,32.94
2022-08-03T16:14:34.371Z,32.89
2022-08-03T16:17:05.786Z,32.85
2022-08-03T16:19:33.628Z,32.80
2022-08-03T16:22:02.521Z,32.79
2022-08-03T16:24:31.255Z,32.70
2022-08-03T16:27:00.521Z,32.66
2022-08-03T16:29:29.400Z,32.61
2022-08-03T16:31:57.105Z,32.60
2022-08-03T16:34:24.741Z,32.59
2022-08-03T16:36:52.431Z,32.54
2022-08-03T16:39:21.411Z,32.48
2022-08-03T16:41:54.508Z,32.41
2022-08-03T16:44:29.880Z,32.36
2022-08-03T16:46:57.587Z,32.33
2022-08-03T16:49:53.958Z,32.34
2022-08-03T16:52:16.581Z,32.33
2022-08-03T16:54:50.581Z,32.29
2022-08-03T16:57:59.324Z,32.23
2022-08-03T17:00:11.681Z,32.18
2022-08-03T17:02:48.312Z,32.14
2022-08-03T17:05:16.325Z,32.09
2022-08-03T17:07:50.761Z,32.03
2022-08-03T17:10:27.197Z,31.99
2022-08-03T17:12:55.041Z,31.98
2022-08-03T17:15:37.975Z,31.97
2022-08-03T17:18:13.684Z,31.93
2022-08-03T17:20:42.879Z,31.88
2022-08-03T17:23:33.919Z,31.84
2022-08-03T17:26:10.628Z,31.84
2022-08-03T17:28:51.773Z,31.81
2022-08-03T17:31:31.290Z,31.79
2022-08-03T17:34:01.576Z,31.78
2022-08-03T17:36:54.001Z,31.78
2022-08-03T17:39:35.793Z,31.77
2022-08-03T17:45:02.162Z,31.65
2022-08-03T17:47:41.951Z,31.57
2022-08-03T17:50:25.025Z,31.55
2022-08-03T17:53:07.807Z,31.54
2022-08-03T17:55:57.653Z,31.53
2022-08-03T17:58:41.983Z,31.45
2022-08-03T18:02:06.072Z,31.42
2022-08-03T18:04:29.843Z,31.40
2022-08-03T18:07:11.311Z,31.38
2022-08-03T18:10:04.807Z,31.35
2022-08-03T18:12:30.130Z,31.31
2022-08-03T18:15:08.397Z,31.26
2022-08-03T18:17:55.001Z,31.22
2022-08-03T18:20:33.055Z,31.19
2022-08-03T18:23:10.562Z,31.15
2022-08-03T18:25:45.645Z,31.09
2022-08-03T18:28:23.264Z,31.04
2022-08-03T18:30:55.216Z,31.01
2022-08-03T18:34:18.212Z,30.96
2022-08-03T18:36:17.275Z,30.90
2022-08-03T18:38:48.046Z,30.84
2022-08-03T18:41:31.705Z,30.83
2022-08-03T18:44:08.367Z,30.79
2022-08-03T18:47:07.237Z,30.78
2022-08-03T18:49:53.757Z,30.76
2022-08-03T18:52:26.983Z,30.73
2022-08-03T18:55:08.464Z,30.69
2022-08-03T18:57:53.231Z,30.67
2022-08-03T19:00:24.916Z,30.65
2022-08-03T19:03:20.304Z,30.60
2022-08-03T19:06:02.653Z,30.57
2022-08-03T19:08:45.196Z,30.55
2022-08-03T19:11:27.810Z,30.52
2022-08-03T19:14:00.130Z,30.47
2022-08-03T19:16:35.347Z,30.42
2022-08-03T19:19:10.868Z,30.34
2022-08-03T19:21:42.620Z,30.28
2022-08-03T19:24:10.594Z,30.21
2022-08-03T19:26:39.637Z,30.17
2022-08-03T19:29:11.364Z,30.16
2022-08-03T19:31:59.413Z,30.14
2022-08-03T19:34:30.646Z,30.11
2022-08-03T19:36:59.083Z,30.12
2022-08-03T19:39:27.504Z,30.12
2022-08-03T19:42:06.353Z,30.08
2022-08-03T19:44:41.161Z,30.02
2022-08-03T19:47:11.489Z,29.95
2022-08-03T19:49:49.682Z,29.90
2022-08-03T19:52:35.655Z,29.84
2022-08-03T19:55:09.518Z,29.78
2022-08-03T19:57:43.284Z,29.74
2022-08-03T20:00:13.910Z,29.70
2022-08-03T20:02:42.145Z,29.65
2022-08-03T20:05:15.680Z,29.62
2022-08-03T20:07:48.139Z,29.58
2022-08-03T20:10:17.043Z,29.53
2022-08-03T20:12:45.598Z,29.50
2022-08-03T20:15:13.465Z,29.47
2022-08-03T20:17:56.449Z,29.42
2022-08-03T20:20:30.920Z,29.38
2022-08-03T20:23:00.927Z,29.33
2022-08-03T20:25:38.247Z,29.29
2022-08-03T20:28:13.988Z,29.24
2022-08-03T20:30:47.230Z,29.21
2022-08-03T20:33:18.916Z,29.18
2022-08-03T20:35:50.157Z,29.16
2022-08-03T20:38:18.999Z,29.15
2022-08-03T20:40:48.341Z,29.15
2022-08-03T20:43:16.216Z,29.15
2022-08-03T20:45:59.918Z,29.14
2022-08-03T20:48:33.971Z,29.13
2022-08-03T20:51:04.884Z,29.08
2022-08-03T20:53:59.840Z,29.04
2022-08-03T20:56:33.734Z,29.01
2022-08-03T20:59:03.957Z,28.99
2022-08-03T21:01:36.283Z,28.97
2022-08-03T21:04:06.924Z,28.97
2022-08-03T21:06:45.713Z,28.98
2022-08-03T21:09:33.196Z,28.96
2022-08-03T21:12:08.492Z,28.94
2022-08-03T21:13:05.102Z,31.69
2022-08-03T21:14:51.962Z,28.90
2022-08-03T21:17:39.929Z,28.85
2022-08-03T21:20:10.366Z,28.77
2022-08-03T21:22:43.449Z,28.70
2022-08-03T21:25:15.081Z,28.66
2022-08-03T21:27:43.247Z,28.59
2022-08-03T21:30:12.982Z,28.55
2022-08-03T21:32:43.775Z,28.50
2022-08-03T21:35:15.074Z,28.40
2022-08-03T21:37:45.335Z,28.32
2022-08-03T21:40:16.308Z,28.33
2022-08-03T21:42:45.754Z,28.31
2022-08-03T21:45:17.399Z,28.29
2022-08-03T21:47:46.521Z,28.24
2022-08-03T21:50:14.663Z,28.22
2022-08-03T21:52:47.479Z,28.19
2022-08-03T21:55:20.432Z,28.14
2022-08-03T21:57:53.883Z,28.12
2022-08-03T22:00:24.020Z,28.12
2022-08-03T22:02:55.503Z,28.08
2022-08-03T22:05:28.990Z,28.07
2022-08-03T22:08:13.903Z,28.04
2022-08-03T22:10:44.099Z,28.03
2022-08-03T22:13:12.826Z,28.00
2022-08-03T22:15:40.521Z,27.96
2022-08-03T22:18:08.343Z,27.92
2022-08-03T22:20:36.233Z,27.88
2022-08-03T22:23:07.013Z,27.87
2022-08-03T22:25:39.534Z,27.85
2022-08-03T22:28:09.701Z,27.80
2022-08-03T22:30:38.079Z,27.76
2022-08-03T22:33:11.043Z,27.71
2022-08-03T22:35:47.397Z,27.69
2022-08-03T22:38:17.034Z,27.67
2022-08-03T22:40:48.685Z,27.61
2022-08-03T22:43:17.029Z,27.59
2022-08-03T22:46:09.981Z,27.57
2022-08-03T22:48:35.917Z,27.56
2022-08-03T22:51:08.667Z,27.55
2022-08-03T22:53:36.879Z,27.54
2022-08-03T22:56:06.117Z,27.50
2022-08-03T22:58:33.738Z,27.39
